sensor_id;sensor_type;location;lat;lon;timestamp;P1;durP1;ratioP1;P2;durP2;ratioP2
22298;SDS011;11317;51.072;17.036;2022-10-26T00:00:44;17.83;;;9.35;;
22298;SDS011;11317;51.072;17.036;2022-10-26T00:03:10;17.77;;;9.95;;
22298;SDS011;11317;51.072;17.036;2022-10-26T00:05:36;15.43;;;9.57;;
22298;SDS011;11317;51.072;17.036;2022-10-26T00:08:02;15.95;;;10.25;;
22298;SDS011;11317;51.072;17.036;2022-10-26T00:10:28;15.98;;;9.70;;
22298;SDS011;11317;51.072;17.036;2022-10-26T00:12:54;16.58;;;8.95;;
22298;SDS011;11317;51.072;17.036;2022-10-26T00:15:20;15.82;;;8.80;;
22298;SDS011;11317;51.072;17.036;2022-10-26T00:17:46;15.95;;;9.25;;
22298;SDS011;11317;51.072;17.036;2022-10-26T00:20:13;15.48;;;8.38;;
22298;SDS011;11317;51.072;17.036;2022-10-26T00:22:39;16.75;;;9.65;;
22298;SDS011;11317;51.072;17.036;2022-10-26T00:25:05;16.52;;;9.20;;
22298;SDS011;11317;51.072;17.036;2022-10-26T00:27:31;14.05;;;8.85;;
22298;SDS011;11317;51.072;17.036;2022-10-26T00:29:58;16.52;;;9.32;;
22298;SDS011;11317;51.072;17.036;2022-10-26T00:32:24;14.93;;;9.40;;
22298;SDS011;11317;51.072;17.036;2022-10-26T00:34:50;14.07;;;8.52;;
22298;SDS011;11317;51.072;17.036;2022-10-26T00:37:16;17.38;;;8.30;;
22298;SDS011;11317;51.072;17.036;2022-10-26T00:39:42;16.48;;;8.52;;
22298;SDS011;11317;51.072;17.036;2022-10-26T00:42:12;14.75;;;8.43;;
22298;SDS011;11317;51.072;17.036;2022-10-26T00:47:15;11.98;;;7.93;;
22298;SDS011;11317;51.072;17.036;2022-10-26T00:49:48;17.77;;;8.50;;
22298;SDS011;11317;51.072;17.036;2022-10-26T00:52:17;14.80;;;8.10;;
22298;SDS011;11317;51.072;17.036;2022-10-26T00:54:44;14.50;;;8.27;;
22298;SDS011;11317;51.072;17.036;2022-10-26T00:57:11;11.30;;;6.93;;
22298;SDS011;11317;51.072;17.036;2022-10-26T00:59:41;11.90;;;7.28;;
22298;SDS011;11317;51.072;17.036;2022-10-26T01:02:08;14.40;;;8.43;;
22298;SDS011;11317;51.072;17.036;2022-10-26T01:04:34;14.25;;;8.02;;
22298;SDS011;11317;51.072;17.036;2022-10-26T01:07:00;16.58;;;7.93;;
22298;SDS011;11317;51.072;17.036;2022-10-26T01:09:29;13.32;;;8.10;;
22298;SDS011;11317;51.072;17.036;2022-10-26T01:11:55;11.88;;;7.38;;
22298;SDS011;11317;51.072;17.036;2022-10-26T01:14:21;14.18;;;7.57;;
22298;SDS011;11317;51.072;17.036;2022-10-26T01:22:50;15.15;;;7.72;;
22298;SDS011;11317;51.072;17.036;2022-10-26T01:28:06;16.83;;;7.35;;
22298;SDS011;11317;51.072;17.036;2022-10-26T01:30:45;13.30;;;7.90;;
22298;SDS011;11317;51.072;17.036;2022-10-26T01:33:19;12.20;;;7.60;;
22298;SDS011;11317;51.072;17.036;2022-10-26T01:36:01;12.15;;;7.65;;
22298;SDS011;11317;51.072;17.036;2022-10-26T01:41:17;15.35;;;9.02;;
22298;SDS011;11317;51.072;17.036;2022-10-26T01:43:52;14.73;;;9.02;;
22298;SDS011;11317;51.072;17.036;2022-10-26T01:46:21;13.77;;;8.00;;
22298;SDS011;11317;51.072;17.036;2022-10-26T01:48:50;13.95;;;8.20;;
22298;SDS011;11317;51.072;17.036;2022-10-26T01:51:20;12.07;;;7.18;;
22298;SDS011;11317;51.072;17.036;2022-10-26T01:53:46;16.05;;;7.90;;
22298;SDS011;11317;51.072;17.036;2022-10-26T01:56:13;10.98;;;7.07;;
22298;SDS011;11317;51.072;17.036;2022-10-26T02:11:54;14.02;;;8.27;;
22298;SDS011;11317;51.072;17.036;2022-10-26T02:14:27;14.82;;;7.68;;
22298;SDS011;11317;51.072;17.036;2022-10-26T02:19:32;12.98;;;7.65;;
22298;SDS011;11317;51.072;17.036;2022-10-26T02:22:05;12.57;;;7.60;;
22298;SDS011;11317;51.072;17.036;2022-10-26T02:24:42;13.38;;;7.63;;
22298;SDS011;11317;51.072;17.036;2022-10-26T02:27:11;11.68;;;7.38;;
22298;SDS011;11317;51.072;17.036;2022-10-26T02:29:53;17.83;;;7.25;;
22298;SDS011;11317;51.072;17.036;2022-10-26T02:32:21;9.38;;;7.07;;
22298;SDS011;11317;51.072;17.036;2022-10-26T02:34:49;13.15;;;7.53;;
22298;SDS011;11317;51.072;17.036;2022-10-26T02:37:17;12.40;;;7.07;;
22298;SDS011;11317;51.072;17.036;2022-10-26T02:39:45;10.10;;;7.32;;
22298;SDS011;11317;51.072;17.036;2022-10-26T02:42:14;14.02;;;7.72;;
22298;SDS011;11317;51.072;17.036;2022-10-26T02:44:45;10.82;;;6.45;;
22298;SDS011;11317;51.072;17.036;2022-10-26T02:47:14;11.85;;;6.53;;
22298;SDS011;11317;51.072;17.036;2022-10-26T02:49:41;17.20;;;7.53;;
22298;SDS011;11317;51.072;17.036;2022-10-26T02:52:12;13.07;;;6.30;;
22298;SDS011;11317;51.072;17.036;2022-10-26T02:54:52;13.05;;;7.45;;
22298;SDS011;11317;51.072;17.036;2022-10-26T02:57:28;12.35;;;7.18;;
22298;SDS011;11317;51.072;17.036;2022-10-26T03:00:03;12.35;;;7.47;;
22298;SDS011;11317;51.072;17.036;2022-10-26T03:02:30;15.13;;;7.55;;
22298;SDS011;11317;51.072;17.036;2022-10-26T03:04:56;12.00;;;7.03;;
22298;SDS011;11317;51.072;17.036;2022-10-26T03:07:34;11.60;;;7.05;;
22298;SDS011;11317;51.072;17.036;2022-10-26T03:10:00;13.32;;;7.40;;
22298;SDS011;11317;51.072;17.036;2022-10-26T03:12:26;14.07;;;7.10;;
22298;SDS011;11317;51.072;17.036;2022-10-26T03:14:52;10.00;;;6.78;;
22298;SDS011;11317;51.072;17.036;2022-10-26T03:17:18;10.95;;;6.72;;
22298;SDS011;11317;51.072;17.036;2022-10-26T03:19:44;11.20;;;6.60;;
22298;SDS011;11317;51.072;17.036;2022-10-26T03:22:10;9.95;;;6.97;;
22298;SDS011;11317;51.072;17.036;2022-10-26T03:24:36;16.88;;;6.93;;
22298;SDS011;11317;51.072;17.036;2022-10-26T03:27:02;12.88;;;7.32;;
22298;SDS011;11317;51.072;17.036;2022-10-26T03:29:28;13.13;;;7.68;;
22298;SDS011;11317;51.072;17.036;2022-10-26T03:31:53;12.38;;;7.22;;
22298;SDS011;11317;51.072;17.036;2022-10-26T03:34:19;12.02;;;7.13;;
22298;SDS011;11317;51.072;17.036;2022-10-26T03:36:45;12.45;;;6.90;;
22298;SDS011;11317;51.072;17.036;2022-10-26T03:39:11;16.83;;;7.43;;
22298;SDS011;11317;51.072;17.036;2022-10-26T03:41:37;13.63;;;7.95;;
22298;SDS011;11317;51.072;17.036;2022-10-26T03:44:03;12.43;;;7.20;;
22298;SDS011;11317;51.072;17.036;2022-10-26T03:46:28;12.73;;;6.50;;
22298;SDS011;11317;51.072;17.036;2022-10-26T03:48:54;12.02;;;7.75;;
22298;SDS011;11317;51.072;17.036;2022-10-26T03:51:20;11.13;;;7.00;;
22298;SDS011;11317;51.072;17.036;2022-10-26T03:53:46;11.98;;;6.95;;
22298;SDS011;11317;51.072;17.036;2022-10-26T03:56:12;11.52;;;6.72;;
22298;SDS011;11317;51.072;17.036;2022-10-26T03:58:38;11.27;;;6.70;;
22298;SDS011;11317;51.072;17.036;2022-10-26T04:01:04;11.73;;;6.25;;
22298;SDS011;11317;51.072;17.036;2022-10-26T04:03:30;10.13;;;6.38;;
22298;SDS011;11317;51.072;17.036;2022-10-26T04:05:59;12.07;;;8.02;;
22298;SDS011;11317;51.072;17.036;2022-10-26T04:08:25;11.27;;;7.68;;
22298;SDS011;11317;51.072;17.036;2022-10-26T04:10:51;11.73;;;7.40;;
22298;SDS011;11317;51.072;17.036;2022-10-26T04:13:17;12.82;;;7.20;;
22298;SDS011;11317;51.072;17.036;2022-10-26T04:15:43;12.32;;;6.32;;
22298;SDS011;11317;51.072;17.036;2022-10-26T04:18:09;11.70;;;6.10;;
22298;SDS011;11317;51.072;17.036;2022-10-26T04:20:39;11.25;;;7.13;;
22298;SDS011;11317;51.072;17.036;2022-10-26T04:23:12;11.18;;;7.10;;
22298;SDS011;11317;51.072;17.036;2022-10-26T04:25:39;10.88;;;6.95;;
22298;SDS011;11317;51.072;17.036;2022-10-26T04:28:06;10.90;;;6.28;;
22298;SDS011;11317;51.072;17.036;2022-10-26T04:30:33;8.73;;;5.85;;
22298;SDS011;11317;51.072;17.036;2022-10-26T04:32:59;10.55;;;6.53;;
22298;SDS011;11317;51.072;17.036;2022-10-26T04:35:25;14.63;;;7.22;;
22298;SDS011;11317;51.072;17.036;2022-10-26T04:37:55;15.40;;;6.90;;
22298;SDS011;11317;51.072;17.036;2022-10-26T04:40:23;11.02;;;5.68;;
22298;SDS011;11317;51.072;17.036;2022-10-26T04:42:48;13.07;;;7.13;;
22298;SDS011;11317;51.072;17.036;2022-10-26T04:45:14;11.65;;;6.45;;
22298;SDS011;11317;51.072;17.036;2022-10-26T04:47:40;12.23;;;6.65;;
22298;SDS011;11317;51.072;17.036;2022-10-26T04:50:07;9.75;;;6.55;;
22298;SDS011;11317;51.072;17.036;2022-10-26T04:52:34;8.00;;;5.43;;
22298;SDS011;11317;51.072;17.036;2022-10-26T04:55:01;10.38;;;6.60;;
22298;SDS011;11317;51.072;17.036;2022-10-26T04:57:29;8.75;;;6.40;;
22298;SDS011;11317;51.072;17.036;2022-10-26T04:59:56;9.68;;;6.15;;
22298;SDS011;11317;51.072;17.036;2022-10-26T05:02:22;9.60;;;6.35;;
22298;SDS011;11317;51.072;17.036;2022-10-26T05:04:47;10.63;;;6.53;;
22298;SDS011;11317;51.072;17.036;2022-10-26T05:07:13;9.65;;;6.10;;
22298;SDS011;11317;51.072;17.036;2022-10-26T05:09:39;10.10;;;6.15;;
22298;SDS011;11317;51.072;17.036;2022-10-26T05:12:05;9.90;;;5.95;;
22298;SDS011;11317;51.072;17.036;2022-10-26T05:14:31;9.48;;;5.43;;
22298;SDS011;11317;51.072;17.036;2022-10-26T05:16:57;8.70;;;5.30;;
22298;SDS011;11317;51.072;17.036;2022-10-26T05:19:23;8.85;;;5.55;;
22298;SDS011;11317;51.072;17.036;2022-10-26T05:21:48;16.95;;;7.30;;
22298;SDS011;11317;51.072;17.036;2022-10-26T05:24:17;10.35;;;6.20;;
22298;SDS011;11317;51.072;17.036;2022-10-26T05:26:43;10.80;;;6.30;;
22298;SDS011;11317;51.072;17.036;2022-10-26T05:29:09;12.00;;;7.30;;
22298;SDS011;11317;51.072;17.036;2022-10-26T05:31:34;12.55;;;6.10;;
22298;SDS011;11317;51.072;17.036;2022-10-26T05:34:00;12.13;;;6.10;;
22298;SDS011;11317;51.072;17.036;2022-10-26T05:36:26;10.07;;;6.72;;
22298;SDS011;11317;51.072;17.036;2022-10-26T05:38:52;8.93;;;6.80;;
22298;SDS011;11317;51.072;17.036;2022-10-26T05:41:18;9.52;;;6.28;;
22298;SDS011;11317;51.072;17.036;2022-10-26T05:43:45;12.70;;;6.40;;
22298;SDS011;11317;51.072;17.036;2022-10-26T05:46:12;11.15;;;6.80;;
22298;SDS011;11317;51.072;17.036;2022-10-26T05:48:38;10.32;;;5.78;;
22298;SDS011;11317;51.072;17.036;2022-10-26T05:51:03;9.93;;;5.20;;
22298;SDS011;11317;51.072;17.036;2022-10-26T05:53:29;8.95;;;5.38;;
22298;SDS011;11317;51.072;17.036;2022-10-26T05:55:55;15.10;;;6.60;;
22298;SDS011;11317;51.072;17.036;2022-10-26T05:58:22;9.93;;;5.38;;
22298;SDS011;11317;51.072;17.036;2022-10-26T06:03:35;8.85;;;5.95;;
22298;SDS011;11317;51.072;17.036;2022-10-26T06:06:13;10.60;;;5.65;;
22298;SDS011;11317;51.072;17.036;2022-10-26T06:08:40;8.82;;;5.32;;
22298;SDS011;11317;51.072;17.036;2022-10-26T06:11:07;14.77;;;6.40;;
22298;SDS011;11317;51.072;17.036;2022-10-26T06:13:33;8.85;;;5.55;;
22298;SDS011;11317;51.072;17.036;2022-10-26T06:18:56;13.87;;;7.07;;
22298;SDS011;11317;51.072;17.036;2022-10-26T06:24:38;14.57;;;7.18;;
22298;SDS011;11317;51.072;17.036;2022-10-26T06:27:18;14.18;;;8.57;;
22298;SDS011;11317;51.072;17.036;2022-10-26T06:30:07;15.70;;;8.38;;
22298;SDS011;11317;51.072;17.036;2022-10-26T06:32:35;12.23;;;7.57;;
22298;SDS011;11317;51.072;17.036;2022-10-26T06:37:43;11.40;;;8.63;;
22298;SDS011;11317;51.072;17.036;2022-10-26T06:40:10;17.50;;;9.38;;
22298;SDS011;11317;51.072;17.036;2022-10-26T06:42:38;14.80;;;8.48;;
22298;SDS011;11317;51.072;17.036;2022-10-26T06:45:05;12.35;;;8.25;;
22298;SDS011;11317;51.072;17.036;2022-10-26T06:50:36;16.13;;;10.38;;
22298;SDS011;11317;51.072;17.036;2022-10-26T06:55:50;14.48;;;9.50;;
22298;SDS011;11317;51.072;17.036;2022-10-26T06:58:17;16.92;;;9.77;;
22298;SDS011;11317;51.072;17.036;2022-10-26T07:00:45;16.88;;;10.77;;
22298;SDS011;11317;51.072;17.036;2022-10-26T07:03:13;12.50;;;8.57;;
22298;SDS011;11317;51.072;17.036;2022-10-26T07:05:40;11.93;;;8.50;;
22298;SDS011;11317;51.072;17.036;2022-10-26T07:08:06;9.68;;;6.57;;
22298;SDS011;11317;51.072;17.036;2022-10-26T07:10:32;11.85;;;6.57;;
22298;SDS011;11317;51.072;17.036;2022-10-26T07:13:05;8.40;;;5.95;;
22298;SDS011;11317;51.072;17.036;2022-10-26T07:15:32;9.80;;;5.82;;
22298;SDS011;11317;51.072;17.036;2022-10-26T07:17:58;11.20;;;6.85;;
22298;SDS011;11317;51.072;17.036;2022-10-26T07:20:24;8.80;;;6.20;;
22298;SDS011;11317;51.072;17.036;2022-10-26T07:22:51;8.68;;;5.93;;
22298;SDS011;11317;51.072;17.036;2022-10-26T07:25:20;6.63;;;5.10;;
22298;SDS011;11317;51.072;17.036;2022-10-26T07:27:47;10.02;;;5.72;;
22298;SDS011;11317;51.072;17.036;2022-10-26T07:30:13;15.20;;;5.90;;
22298;SDS011;11317;51.072;17.036;2022-10-26T07:32:39;8.77;;;4.60;;
22298;SDS011;11317;51.072;17.036;2022-10-26T07:35:05;8.70;;;4.97;;
22298;SDS011;11317;51.072;17.036;2022-10-26T07:37:31;9.27;;;4.78;;
22298;SDS011;11317;51.072;17.036;2022-10-26T07:39:57;7.35;;;4.80;;
22298;SDS011;11317;51.072;17.036;2022-10-26T07:42:23;9.18;;;4.55;;
22298;SDS011;11317;51.072;17.036;2022-10-26T07:44:49;9.85;;;4.50;;
22298;SDS011;11317;51.072;17.036;2022-10-26T07:47:15;9.23;;;5.38;;
22298;SDS011;11317;51.072;17.036;2022-10-26T07:49:41;10.75;;;5.20;;
22298;SDS011;11317;51.072;17.036;2022-10-26T07:52:08;6.32;;;4.53;;
22298;SDS011;11317;51.072;17.036;2022-10-26T07:54:34;7.63;;;4.43;;
22298;SDS011;11317;51.072;17.036;2022-10-26T07:57:00;7.75;;;3.78;;
22298;SDS011;11317;51.072;17.036;2022-10-26T07:59:26;8.27;;;3.42;;
22298;SDS011;11317;51.072;17.036;2022-10-26T08:01:52;8.32;;;4.57;;
22298;SDS011;11317;51.072;17.036;2022-10-26T08:04:18;5.15;;;4.40;;
22298;SDS011;11317;51.072;17.036;2022-10-26T08:06:44;8.57;;;4.25;;
22298;SDS011;11317;51.072;17.036;2022-10-26T08:09:11;7.63;;;4.72;;
22298;SDS011;11317;51.072;17.036;2022-10-26T08:11:37;6.07;;;4.78;;
22298;SDS011;11317;51.072;17.036;2022-10-26T08:14:02;7.07;;;4.38;;
22298;SDS011;11317;51.072;17.036;2022-10-26T08:16:28;7.88;;;4.63;;
22298;SDS011;11317;51.072;17.036;2022-10-26T08:18:55;5.80;;;3.90;;
22298;SDS011;11317;51.072;17.036;2022-10-26T08:21:21;8.73;;;4.55;;
22298;SDS011;11317;51.072;17.036;2022-10-26T08:23:47;8.50;;;4.47;;
22298;SDS011;11317;51.072;17.036;2022-10-26T08:26:12;9.93;;;4.53;;
22298;SDS011;11317;51.072;17.036;2022-10-26T08:28:39;8.57;;;4.28;;
22298;SDS011;11317;51.072;17.036;2022-10-26T08:31:05;4.70;;;4.10;;
22298;SDS011;11317;51.072;17.036;2022-10-26T08:33:31;6.93;;;4.18;;
22298;SDS011;11317;51.072;17.036;2022-10-26T08:36:01;9.13;;;4.97;;
22298;SDS011;11317;51.072;17.036;2022-10-26T08:38:28;9.45;;;3.88;;
22298;SDS011;11317;51.072;17.036;2022-10-26T08:40:55;7.80;;;4.78;;
22298;SDS011;11317;51.072;17.036;2022-10-26T08:43:41;7.30;;;4.50;;
22298;SDS011;11317;51.072;17.036;2022-10-26T08:46:33;7.95;;;4.18;;
22298;SDS011;11317;51.072;17.036;2022-10-26T08:49:09;6.50;;;4.43;;
22298;SDS011;11317;51.072;17.036;2022-10-26T08:51:44;8.57;;;4.15;;
22298;SDS011;11317;51.072;17.036;2022-10-26T08:56:44;7.75;;;3.97;;
22298;SDS011;11317;51.072;17.036;2022-10-26T08:59:15;7.30;;;3.67;;
22298;SDS011;11317;51.072;17.036;2022-10-26T09:01:42;7.38;;;3.85;;
22298;SDS011;11317;51.072;17.036;2022-10-26T09:04:11;7.80;;;3.58;;
22298;SDS011;11317;51.072;17.036;2022-10-26T09:12:08;9.85;;;4.15;;
22298;SDS011;11317;51.072;17.036;2022-10-26T09:14:59;9.07;;;3.90;;
22298;SDS011;11317;51.072;17.036;2022-10-26T09:17:45;9.05;;;4.45;;
22298;SDS011;11317;51.072;17.036;2022-10-26T09:23:26;6.00;;;3.60;;
22298;SDS011;11317;51.072;17.036;2022-10-26T09:25:58;7.90;;;4.00;;
22298;SDS011;11317;51.072;17.036;2022-10-26T09:28:25;7.53;;;4.13;;
22298;SDS011;11317;51.072;17.036;2022-10-26T09:31:02;3.80;;;3.28;;
22298;SDS011;11317;51.072;17.036;2022-10-26T09:33:29;5.18;;;3.78;;
22298;SDS011;11317;51.072;17.036;2022-10-26T09:36:03;3.95;;;3.33;;
22298;SDS011;11317;51.072;17.036;2022-10-26T09:38:44;5.47;;;3.53;;
22298;SDS011;11317;51.072;17.036;2022-10-26T09:44:53;2.97;;;2.67;;
22298;SDS011;11317;51.072;17.036;2022-10-26T09:49:49;5.22;;;3.70;;
22298;SDS011;11317;51.072;17.036;2022-10-26T09:52:19;4.25;;;3.05;;
22298;SDS011;11317;51.072;17.036;2022-10-26T09:54:45;4.43;;;3.40;;
22298;SDS011;11317;51.072;17.036;2022-10-26T09:57:14;6.15;;;3.95;;
22298;SDS011;11317;51.072;17.036;2022-10-26T09:59:43;6.77;;;4.10;;
22298;SDS011;11317;51.072;17.036;2022-10-26T10:10:54;7.68;;;3.42;;
22298;SDS011;11317;51.072;17.036;2022-10-26T10:13:28;5.40;;;3.78;;
22298;SDS011;11317;51.072;17.036;2022-10-26T10:18:29;4.93;;;3.42;;
22298;SDS011;11317;51.072;17.036;2022-10-26T10:20:57;4.78;;;3.30;;
22298;SDS011;11317;51.072;17.036;2022-10-26T10:23:31;5.15;;;3.40;;
22298;SDS011;11317;51.072;17.036;2022-10-26T10:26:00;5.32;;;3.55;;
22298;SDS011;11317;51.072;17.036;2022-10-26T10:28:29;4.20;;;3.10;;
22298;SDS011;11317;51.072;17.036;2022-10-26T10:30:59;5.20;;;3.08;;
22298;SDS011;11317;51.072;17.036;2022-10-26T10:33:59;5.43;;;3.17;;
22298;SDS011;11317;51.072;17.036;2022-10-26T10:36:19;6.07;;;2.70;;
22298;SDS011;11317;51.072;17.036;2022-10-26T10:38:48;4.00;;;2.58;;
22298;SDS011;11317;51.072;17.036;2022-10-26T10:41:20;6.68;;;2.75;;
22298;SDS011;11317;51.072;17.036;2022-10-26T10:47:05;3.10;;;2.63;;
22298;SDS011;11317;51.072;17.036;2022-10-26T10:51:57;3.42;;;2.20;;
22298;SDS011;11317;51.072;17.036;2022-10-26T10:56:53;3.47;;;1.98;;
22298;SDS011;11317;51.072;17.036;2022-10-26T11:08:09;4.22;;;2.22;;
22298;SDS011;11317;51.072;17.036;2022-10-26T11:10:43;4.60;;;2.17;;
22298;SDS011;11317;51.072;17.036;2022-10-26T11:13:25;5.43;;;1.80;;
22298;SDS011;11317;51.072;17.036;2022-10-26T11:15:58;3.70;;;1.40;;
22298;SDS011;11317;51.072;17.036;2022-10-26T11:18:36;2.45;;;1.35;;
22298;SDS011;11317;51.072;17.036;2022-10-26T11:21:17;2.45;;;1.00;;
22298;SDS011;11317;51.072;17.036;2022-10-26T11:23:46;4.20;;;1.50;;
22298;SDS011;11317;51.072;17.036;2022-10-26T11:26:38;1.90;;;1.30;;
22298;SDS011;11317;51.072;17.036;2022-10-26T11:32:02;4.28;;;1.83;;
22298;SDS011;11317;51.072;17.036;2022-10-26T11:34:42;3.03;;;1.67;;
22298;SDS011;11317;51.072;17.036;2022-10-26T11:37:23;3.55;;;1.40;;
22298;SDS011;11317;51.072;17.036;2022-10-26T11:40:07;1.50;;;1.30;;
22298;SDS011;11317;51.072;17.036;2022-10-26T11:42:51;3.13;;;1.35;;
22298;SDS011;11317;51.072;17.036;2022-10-26T11:45:24;3.80;;;1.38;;
22298;SDS011;11317;51.072;17.036;2022-10-26T11:50:21;2.22;;;1.23;;
22298;SDS011;11317;51.072;17.036;2022-10-26T11:52:53;2.80;;;1.30;;
22298;SDS011;11317;51.072;17.036;2022-10-26T11:55:30;7.05;;;1.60;;
22298;SDS011;11317;51.072;17.036;2022-10-26T11:57:56;3.10;;;1.60;;
22298;SDS011;11317;51.072;17.036;2022-10-26T12:00:22;2.97;;;1.45;;
22298;SDS011;11317;51.072;17.036;2022-10-26T12:05:34;2.83;;;1.35;;
22298;SDS011;11317;51.072;17.036;2022-10-26T12:08:28;5.80;;;1.75;;
22298;SDS011;11317;51.072;17.036;2022-10-26T12:11:11;3.38;;;1.50;;
22298;SDS011;11317;51.072;17.036;2022-10-26T12:14:06;1.40;;;1.30;;
22298;SDS011;11317;51.072;17.036;2022-10-26T12:19:46;3.88;;;1.92;;
22298;SDS011;11317;51.072;17.036;2022-10-26T12:22:27;4.20;;;1.55;;
22298;SDS011;11317;51.072;17.036;2022-10-26T12:37:59;1.98;;;1.40;;
22298;SDS011;11317;51.072;17.036;2022-10-26T12:40:46;7.28;;;1.40;;
22298;SDS011;11317;51.072;17.036;2022-10-26T12:45:38;2.88;;;1.40;;
22298;SDS011;11317;51.072;17.036;2022-10-26T12:48:10;3.10;;;1.20;;
22298;SDS011;11317;51.072;17.036;2022-10-26T12:50:52;2.67;;;1.30;;
22298;SDS011;11317;51.072;17.036;2022-10-26T12:53:19;2.38;;;1.38;;
22298;SDS011;11317;51.072;17.036;2022-10-26T13:01:08;2.83;;;1.45;;
22298;SDS011;11317;51.072;17.036;2022-10-26T13:09:45;4.22;;;1.60;;
22298;SDS011;11317;51.072;17.036;2022-10-26T13:12:26;3.15;;;1.98;;
22298;SDS011;11317;51.072;17.036;2022-10-26T13:15:03;3.00;;;1.48;;
22298;SDS011;11317;51.072;17.036;2022-10-26T13:17:31;2.45;;;1.42;;
22298;SDS011;11317;51.072;17.036;2022-10-26T13:19:59;1.77;;;1.13;;
22298;SDS011;11317;51.072;17.036;2022-10-26T13:22:28;2.90;;;1.50;;
22298;SDS011;11317;51.072;17.036;2022-10-26T13:24:56;5.72;;;1.40;;
22298;SDS011;11317;51.072;17.036;2022-10-26T13:32:27;1.90;;;1.10;;
22298;SDS011;11317;51.072;17.036;2022-10-26T13:35:04;2.78;;;1.40;;
22298;SDS011;11317;51.072;17.036;2022-10-26T13:37:35;2.22;;;1.30;;
22298;SDS011;11317;51.072;17.036;2022-10-26T13:40:05;4.72;;;1.27;;
22298;SDS011;11317;51.072;17.036;2022-10-26T13:42:32;3.70;;;1.00;;
22298;SDS011;11317;51.072;17.036;2022-10-26T13:45:27;2.40;;;1.25;;
22298;SDS011;11317;51.072;17.036;2022-10-26T13:48:02;2.42;;;1.30;;
22298;SDS011;11317;51.072;17.036;2022-10-26T13:50:34;2.20;;;1.45;;
22298;SDS011;11317;51.072;17.036;2022-10-26T13:53:15;3.67;;;1.70;;
22298;SDS011;11317;51.072;17.036;2022-10-26T13:56:03;1.65;;;1.25;;
22298;SDS011;11317;51.072;17.036;2022-10-26T13:58:35;2.88;;;1.38;;
22298;SDS011;11317;51.072;17.036;2022-10-26T14:01:11;3.30;;;1.40;;
22298;SDS011;11317;51.072;17.036;2022-10-26T14:03:37;1.60;;;1.13;;
22298;SDS011;11317;51.072;17.036;2022-10-26T14:06:12;1.88;;;1.27;;
22298;SDS011;11317;51.072;17.036;2022-10-26T14:09:02;3.03;;;1.50;;
22298;SDS011;11317;51.072;17.036;2022-10-26T14:11:34;2.10;;;1.30;;
22298;SDS011;11317;51.072;17.036;2022-10-26T14:14:11;2.25;;;1.50;;
22298;SDS011;11317;51.072;17.036;2022-10-26T14:16:41;1.23;;;1.13;;
22298;SDS011;11317;51.072;17.036;2022-10-26T14:19:21;3.13;;;1.30;;
22298;SDS011;11317;51.072;17.036;2022-10-26T14:21:51;1.83;;;1.33;;
22298;SDS011;11317;51.072;17.036;2022-10-26T14:24:22;4.40;;;1.50;;
22298;SDS011;11317;51.072;17.036;2022-10-26T14:26:52;3.03;;;1.20;;
22298;SDS011;11317;51.072;17.036;2022-10-26T14:29:19;2.25;;;1.40;;
22298;SDS011;11317;51.072;17.036;2022-10-26T14:31:47;2.22;;;1.13;;
22298;SDS011;11317;51.072;17.036;2022-10-26T14:34:14;2.25;;;1.30;;
22298;SDS011;11317;51.072;17.036;2022-10-26T14:39:29;3.17;;;1.52;;
22298;SDS011;11317;51.072;17.036;2022-10-26T14:42:09;2.10;;;1.33;;
22298;SDS011;11317;51.072;17.036;2022-10-26T14:44:40;1.92;;;1.20;;
22298;SDS011;11317;51.072;17.036;2022-10-26T14:47:22;4.15;;;1.40;;
22298;SDS011;11317;51.072;17.036;2022-10-26T14:49:51;2.08;;;1.20;;
22298;SDS011;11317;51.072;17.036;2022-10-26T14:52:39;1.58;;;1.33;;
22298;SDS011;11317;51.072;17.036;2022-10-26T14:55:13;1.40;;;1.25;;
22298;SDS011;11317;51.072;17.036;2022-10-26T14:57:41;5.65;;;1.95;;
22298;SDS011;11317;51.072;17.036;2022-10-26T15:02:39;2.72;;;1.38;;
22298;SDS011;11317;51.072;17.036;2022-10-26T15:07:56;2.38;;;1.42;;
22298;SDS011;11317;51.072;17.036;2022-10-26T15:16:05;3.40;;;1.50;;
22298;SDS011;11317;51.072;17.036;2022-10-26T15:18:34;2.28;;;1.63;;
22298;SDS011;11317;51.072;17.036;2022-10-26T15:21:01;2.67;;;1.90;;
22298;SDS011;11317;51.072;17.036;2022-10-26T15:23:27;5.65;;;2.10;;
22298;SDS011;11317;51.072;17.036;2022-10-26T15:25:55;3.92;;;2.15;;
22298;SDS011;11317;51.072;17.036;2022-10-26T15:31:03;4.55;;;2.22;;
22298;SDS011;11317;51.072;17.036;2022-10-26T15:33:36;5.47;;;2.80;;
22298;SDS011;11317;51.072;17.036;2022-10-26T15:38:50;7.13;;;3.72;;
22298;SDS011;11317;51.072;17.036;2022-10-26T15:43:42;4.55;;;2.33;;
22298;SDS011;11317;51.072;17.036;2022-10-26T15:46:10;4.57;;;2.40;;
22298;SDS011;11317;51.072;17.036;2022-10-26T15:48:36;5.07;;;2.60;;
22298;SDS011;11317;51.072;17.036;2022-10-26T15:51:04;5.13;;;3.10;;
22298;SDS011;11317;51.072;17.036;2022-10-26T15:53:30;4.85;;;2.88;;
22298;SDS011;11317;51.072;17.036;2022-10-26T15:55:56;5.10;;;2.33;;
22298;SDS011;11317;51.072;17.036;2022-10-26T15:58:23;9.98;;;4.55;;
22298;SDS011;11317;51.072;17.036;2022-10-26T16:00:55;13.05;;;6.80;;
22298;SDS011;11317;51.072;17.036;2022-10-26T16:03:22;20.27;;;10.55;;
22298;SDS011;11317;51.072;17.036;2022-10-26T16:05:54;21.65;;;9.88;;
22298;SDS011;11317;51.072;17.036;2022-10-26T16:08:22;16.08;;;7.95;;
22298;SDS011;11317;51.072;17.036;2022-10-26T16:10:48;21.38;;;9.23;;
22298;SDS011;11317;51.072;17.036;2022-10-26T16:13:15;15.50;;;8.35;;
22298;SDS011;11317;51.072;17.036;2022-10-26T16:15:41;20.63;;;8.73;;
22298;SDS011;11317;51.072;17.036;2022-10-26T16:18:06;15.82;;;7.85;;
22298;SDS011;11317;51.072;17.036;2022-10-26T16:20:33;15.93;;;7.68;;
22298;SDS011;11317;51.072;17.036;2022-10-26T16:22:58;18.25;;;6.85;;
22298;SDS011;11317;51.072;17.036;2022-10-26T16:25:31;12.93;;;6.20;;
22298;SDS011;11317;51.072;17.036;2022-10-26T16:28:04;10.15;;;5.80;;
22298;SDS011;11317;51.072;17.036;2022-10-26T16:30:30;12.30;;;6.03;;
22298;SDS011;11317;51.072;17.036;2022-10-26T16:32:57;8.95;;;5.93;;
22298;SDS011;11317;51.072;17.036;2022-10-26T16:35:22;12.40;;;6.30;;
22298;SDS011;11317;51.072;17.036;2022-10-26T16:37:48;11.43;;;5.50;;
22298;SDS011;11317;51.072;17.036;2022-10-26T16:40:15;10.15;;;5.82;;
22298;SDS011;11317;51.072;17.036;2022-10-26T16:42:41;13.18;;;7.28;;
22298;SDS011;11317;51.072;17.036;2022-10-26T16:45:12;16.70;;;7.50;;
22298;SDS011;11317;51.072;17.036;2022-10-26T16:47:38;14.25;;;7.63;;
22298;SDS011;11317;51.072;17.036;2022-10-26T16:50:09;20.58;;;8.52;;
22298;SDS011;11317;51.072;17.036;2022-10-26T16:52:36;15.15;;;7.50;;
22298;SDS011;11317;51.072;17.036;2022-10-26T16:55:03;14.55;;;7.53;;
22298;SDS011;11317;51.072;17.036;2022-10-26T16:57:29;13.70;;;7.45;;
22298;SDS011;11317;51.072;17.036;2022-10-26T16:59:56;10.57;;;6.88;;
22298;SDS011;11317;51.072;17.036;2022-10-26T17:02:25;11.07;;;6.55;;
22298;SDS011;11317;51.072;17.036;2022-10-26T17:04:52;10.88;;;5.97;;
22298;SDS011;11317;51.072;17.036;2022-10-26T17:07:18;12.52;;;6.70;;
22298;SDS011;11317;51.072;17.036;2022-10-26T17:09:44;13.90;;;6.13;;
22298;SDS011;11317;51.072;17.036;2022-10-26T17:12:10;13.75;;;6.93;;
22298;SDS011;11317;51.072;17.036;2022-10-26T17:14:36;12.45;;;6.35;;
22298;SDS011;11317;51.072;17.036;2022-10-26T17:17:02;12.73;;;6.72;;
22298;SDS011;11317;51.072;17.036;2022-10-26T17:19:28;10.52;;;6.88;;